Time;durP1;ratioP1;P1;durP2;ratioP2;P2;SDS_P1;SDS_P2;PMS_P1;PMS_P2;Temp;Humidity;BMP_temperature;BMP_pressure;BME280_temperature;BME280_humidity;BME280_pressure;Samples;Min_cycle;Max_cycle;Signal;HPM_P1;HPM_P2
2022/10/27 00:00:59;;;;;;;24.10;13.93;;;;;;;11.93;100.00;101659.91;7388463;19;20435;-48
2022/10/27 00:03:28;;;;;;;25.77;13.43;;;;;;;11.93;100.00;101672.81;7391929;19;20424;-49
2022/10/27 00:05:58;;;;;;;24.50;14.90;;;;;;;11.92;100.00;101672.75;7389017;19;20422;-48
2022/10/27 00:08:27;;;;;;;25.17;15.07;;;;;;;11.89;100.00;101676.06;7392318;19;20410;-46
2022/10/27 00:10:58;;;;;;;25.37;14.50;;;;;;;11.94;100.00;101677.19;7389174;19;20432;-49
2022/10/27 00:13:31;;;;;;;24.27;13.73;;;;;;;11.93;100.00;101674.50;7391551;19;20786;-49
2022/10/27 00:16:01;;;;;;;21.77;14.93;;;;;;;11.95;100.00;101686.72;7388479;19;20443;-47
2022/10/27 00:18:32;;;;;;;25.67;14.60;;;;;;;11.90;100.00;101685.63;7391874;19;20417;-50
2022/10/27 00:21:02;;;;;;;21.90;15.50;;;;;;;11.92;100.00;101693.44;7388285;19;21093;-50
2022/10/27 00:23:32;;;;;;;26.70;14.70;;;;;;;11.91;100.00;101692.56;7390878;19;20422;-50
2022/10/27 00:26:02;;;;;;;25.07;15.53;;;;;;;11.90;100.00;101701.13;7388493;19;20994;-48
2022/10/27 00:28:35;;;;;;;25.17;15.97;;;;;;;11.91;100.00;101705.50;7391858;19;20383;-50
2022/10/27 00:31:06;;;;;;;28.10;15.17;;;;;;;11.88;100.00;101702.72;7387477;19;20425;-46
2022/10/27 00:33:36;;;;;;;26.63;15.43;;;;;;;11.89;100.00;101704.50;7390864;19;20974;-46
2022/10/27 00:36:06;;;;;;;25.50;15.27;;;;;;;11.86;100.00;101710.41;7387848;19;20437;-50
2022/10/27 00:38:36;;;;;;;27.47;15.40;;;;;;;11.84;100.00;101708.56;7393762;19;20402;-49
2022/10/27 00:41:07;;;;;;;23.07;15.10;;;;;;;11.85;100.00;101718.09;7387564;19;20417;-51
2022/10/27 00:43:41;;;;;;;20.97;14.47;;;;;;;11.85;100.00;101716.38;7390666;19;20426;-47
2022/10/27 00:46:22;;;;;;;24.40;14.17;;;;;;;11.82;100.00;101721.41;7385602;19;20429;-48
2022/10/27 00:48:53;;;;;;;24.80;14.83;;;;;;;11.80;100.00;101719.56;7388095;19;20387;-49
2022/10/27 00:51:24;;;;;;;22.70;14.23;;;;;;;11.80;100.00;101719.56;7384565;19;20443;-51
2022/10/27 00:53:54;;;;;;;26.23;14.53;;;;;;;11.80;100.00;101724.72;7387475;19;20480;-50
2022/10/27 00:56:24;;;;;;;25.70;15.27;;;;;;;11.76;100.00;101721.09;7384082;19;20422;-53
2022/10/27 00:58:56;;;;;;;23.43;14.90;;;;;;;11.73;100.00;101729.56;7388545;19;20383;-47
2022/10/27 01:01:26;;;;;;;27.83;15.43;;;;;;;11.73;100.00;101732.16;7385587;19;20414;-47
2022/10/27 01:03:56;;;;;;;26.10;15.13;;;;;;;11.73;100.00;101739.00;7388288;19;20983;-54
2022/10/27 01:06:26;;;;;;;25.70;15.47;;;;;;;11.70;100.00;101736.28;7389184;19;20428;-54
2022/10/27 01:08:56;;;;;;;25.57;14.60;;;;;;;11.69;100.00;101743.13;7388500;19;20763;-54
2022/10/27 01:11:25;;;;;;;31.17;15.80;;;;;;;11.68;100.00;101738.78;7385200;19;20398;-54
2022/10/27 01:13:58;;;;;;;25.70;16.63;;;;;;;11.68;100.00;101746.53;7387839;19;20445;-52
2022/10/27 01:16:32;;;;;;;26.13;14.70;;;;;;;11.67;100.00;101744.75;7385372;19;21009;-55
2022/10/27 01:19:09;;;;;;;26.83;15.27;;;;;;;11.69;100.00;101731.94;7389059;19;20425;-54
2022/10/27 01:21:57;;;;;;;26.60;15.33;;;;;;;11.66;100.00;101737.81;7384395;19;20448;-52
2022/10/27 01:24:46;;;;;;;23.50;14.87;;;;;;;11.65;100.00;101736.03;7388092;19;20481;-47
2022/10/27 01:28:00;;;;;;;24.67;15.43;;;;;;;11.69;100.00;101740.56;7385953;19;20421;-50
2022/10/27 01:30:37;;;;;;;22.30;15.20;;;;;;;11.67;100.00;101739.59;7381089;19;20451;-53
2022/10/27 01:33:14;;;;;;;25.00;15.80;;;;;;;11.68;100.00;101743.94;7388698;19;20424;-49
2022/10/27 01:35:49;;;;;;;24.17;14.60;;;;;;;11.68;100.00;101749.13;7385506;19;20423;-52
2022/10/27 01:38:22;;;;;;;24.00;15.40;;;;;;;11.65;100.00;101751.56;7386805;19;20422;-47
2022/10/27 01:40:56;;;;;;;29.57;16.33;;;;;;;11.67;100.00;101751.63;7384692;19;20452;-52
2022/10/27 01:43:27;;;;;;;22.33;14.63;;;;;;;11.65;100.00;101756.72;7389658;19;20426;-51
2022/10/27 01:45:57;;;;;;;30.77;15.80;;;;;;;11.63;100.00;101758.31;7385251;19;20681;-53
2022/10/27 01:48:30;;;;;;;38.43;15.40;;;;;;;11.65;100.00;101759.31;7388649;19;20608;-48
2022/10/27 01:50:59;;;;;;;29.40;15.17;;;;;;;11.64;100.00;101765.25;7385035;19;20450;-52
2022/10/27 01:53:32;;;;;;;28.67;14.97;;;;;;;11.64;100.00;101764.38;7391546;19;20456;-48
2022/10/27 01:56:15;;;;;;;21.93;14.07;;;;;;;11.61;100.00;101775.44;7385398;19;20412;-48
2022/10/27 01:58:59;;;;;;;25.63;14.77;;;;;;;11.63;100.00;101773.81;7384157;19;20391;-51
2022/10/27 02:01:37;;;;;;;32.27;14.87;;;;;;;11.60;100.00;101771.09;7387256;19;20473;-53
2022/10/27 02:04:15;;;;;;;22.70;13.43;;;;;;;11.61;100.00;101778.03;7392261;19;20454;-53
2022/10/27 02:06:52;;;;;;;23.53;15.13;;;;;;;11.60;100.00;101773.69;7386125;19;20422;-49
2022/10/27 02:09:27;;;;;;;28.87;14.60;;;;;;;11.59;100.00;101779.66;7391012;19;20410;-50
2022/10/27 02:11:57;;;;;;;20.60;13.80;;;;;;;11.57;100.00;101778.66;7386683;19;20777;-50
2022/10/27 02:14:26;;;;;;;26.20;14.93;;;;;;;11.56;100.00;101782.06;7387405;19;20410;-48
2022/10/27 02:16:57;;;;;;;22.60;14.57;;;;;;;11.53;100.00;101790.53;7391432;19;20433;-48
2022/10/27 02:19:31;;;;;;;27.57;14.77;;;;;;;11.53;100.00;101792.25;7396286;19;20417;-52
2022/10/27 02:22:02;;;;;;;26.30;15.13;;;;;;;11.53;100.00;101792.25;7392587;19;20448;-48
2022/10/27 02:24:32;;;;;;;26.63;14.93;;;;;;;11.51;100.00;101792.16;7394276;19;20433;-51
2022/10/27 02:27:04;;;;;;;24.80;15.50;;;;;;;11.48;100.00;101798.03;7392898;19;20468;-53
2022/10/27 02:29:36;;;;;;;32.53;15.53;;;;;;;11.49;100.00;101793.78;7396346;19;20409;-52
2022/10/27 02:32:08;;;;;;;29.13;15.17;;;;;;;11.48;100.00;101800.63;7391980;19;20775;-51
2022/10/27 02:34:41;;;;;;;26.30;14.90;;;;;;;11.48;100.00;101798.03;7393709;19;20425;-49
2022/10/27 02:37:12;;;;;;;23.50;14.00;;;;;;;11.51;100.00;101799.00;7392213;19;20430;-48
2022/10/27 02:39:45;;;;;;;25.23;15.07;;;;;;;11.51;100.00;101806.75;7396039;19;20390;-52
2022/10/27 02:42:14;;;;;;;21.60;15.00;;;;;;;11.53;100.00;101800.00;7390730;19;20421;-47
2022/10/27 02:44:44;;;;;;;28.23;16.27;;;;;;;11.53;100.00;101800.00;7393023;19;20433;-52
2022/10/27 02:47:13;;;;;;;24.67;14.23;;;;;;;11.56;100.00;101807.91;7393059;19;20424;-49
2022/10/27 02:49:45;;;;;;;32.03;15.47;;;;;;;11.55;100.00;101798.38;7395917;19;20369;-48
2022/10/27 02:52:15;;;;;;;25.10;14.40;;;;;;;11.56;100.00;101807.91;7392212;19;20414;-47
2022/10/27 02:54:47;;;;;;;25.83;14.43;;;;;;;11.55;100.00;101817.38;7387986;19;20794;-47
2022/10/27 02:57:17;;;;;;;25.20;14.23;;;;;;;11.55;100.00;101808.72;7395677;19;20447;-47
2022/10/27 02:59:47;;;;;;;24.53;13.90;;;;;;;11.53;100.00;101815.50;7397318;19;20428;-48
2022/10/27 03:02:22;;;;;;;25.30;13.77;;;;;;;11.54;100.00;101820.75;7393466;19;20438;-46
2022/10/27 03:04:55;;;;;;;25.20;13.67;;;;;;;11.52;100.00;101824.03;7387989;19;20424;-45
2022/10/27 03:07:24;;;;;;;23.10;14.33;;;;;;;11.51;100.00;101825.75;7394305;19;20405;-49
2022/10/27 03:09:54;;;;;;;24.63;13.97;;;;;;;11.50;100.00;101833.41;7395243;19;20445;-49
2022/10/27 03:12:23;;;;;;;22.40;14.37;;;;;;;11.50;100.00;101839.50;7393767;19;20386;-48
2022/10/27 03:14:53;;;;;;;24.50;14.70;;;;;;;11.52;100.00;101837.88;7388820;19;20446;-49
2022/10/27 03:17:23;;;;;;;30.47;15.37;;;;;;;11.56;100.00;101838.94;7393246;19;20399;-49
2022/10/27 03:19:55;;;;;;;25.03;14.50;;;;;;;11.55;100.00;101847.50;7390732;19;20388;-46
2022/10/27 03:22:24;;;;;;;30.13;15.63;;;;;;;11.54;100.00;101848.31;7393325;19;20455;-48
2022/10/27 03:24:54;;;;;;;19.63;14.07;;;;;;;11.47;100.00;101860.88;7389042;19;20444;-48
2022/10/27 03:27:24;;;;;;;27.03;14.53;;;;;;;11.50;100.00;101855.00;7391292;19;20394;-53
2022/10/27 03:29:54;;;;;;;25.93;14.43;;;;;;;11.51;100.00;101866.19;7391071;19;20421;-48
2022/10/27 03:32:23;;;;;;;23.37;14.13;;;;;;;11.48;100.00;101865.25;7393272;19;21028;-48
2022/10/27 03:34:55;;;;;;;29.23;15.53;;;;;;;11.47;100.00;101866.06;7388267;19;20791;-48
2022/10/27 03:37:25;;;;;;;27.50;15.80;;;;;;;11.45;100.00;101859.88;7392172;19;20473;-46
2022/10/27 03:39:54;;;;;;;18.97;14.00;;;;;;;11.46;100.00;101860.78;7394339;19;20404;-47
2022/10/27 03:42:24;;;;;;;24.83;14.27;;;;;;;11.47;100.00;101867.72;7392443;19;20771;-50
2022/10/27 03:44:53;;;;;;;21.87;13.77;;;;;;;11.46;100.00;101869.44;7384108;19;20431;-52
2022/10/27 03:47:23;;;;;;;30.27;15.00;;;;;;;11.41;100.00;101863.13;7395666;19;20421;-53
2022/10/27 03:49:52;;;;;;;24.37;14.73;;;;;;;11.44;100.00;101870.16;7390876;19;20398;-51
2022/10/27 03:52:24;;;;;;;26.27;15.87;;;;;;;11.40;100.00;101857.84;7392276;19;20398;-50
2022/10/27 03:54:59;;;;;;;25.17;14.93;;;;;;;11.40;100.00;101868.19;7388097;19;20434;-50
2022/10/27 03:57:28;;;;;;;30.50;15.00;;;;;;;11.43;100.00;101876.13;7392022;19;20401;-52
2022/10/27 03:59:58;;;;;;;27.17;15.33;;;;;;;11.41;100.00;101883.78;7388867;19;20391;-51
2022/10/27 04:02:27;;;;;;;23.43;15.30;;;;;;;11.37;100.00;101879.25;7391439;19;20921;-53
2022/10/27 04:04:57;;;;;;;24.47;15.17;;;;;;;11.35;100.00;101879.16;7384728;19;20426;-50
2022/10/27 04:07:29;;;;;;;25.20;15.10;;;;;;;11.36;100.00;101882.63;7391874;19;20405;-49
2022/10/27 04:09:59;;;;;;;26.27;15.33;;;;;;;11.37;100.00;101880.97;7390625;19;20950;-50
2022/10/27 04:12:28;;;;;;;23.97;14.27;;;;;;;11.35;100.00;101880.88;7391630;19;20619;-53
2022/10/27 04:14:58;;;;;;;23.13;14.90;;;;;;;11.38;100.00;101890.47;7386949;19;20421;-49
2022/10/27 04:17:27;;;;;;;26.63;14.60;;;;;;;11.37;100.00;101894.75;7392032;19;20401;-49
2022/10/27 04:19:57;;;;;;;21.53;12.83;;;;;;;11.36;100.00;101900.72;7389620;19;20397;-50
2022/10/27 04:22:30;;;;;;;28.63;14.93;;;;;;;11.33;100.00;101887.63;7390992;19;20396;-49
2022/10/27 04:25:00;;;;;;;27.50;14.73;;;;;;;11.32;100.00;101896.19;7386547;19;20443;-51
2022/10/27 04:27:29;;;;;;;29.50;17.00;;;;;;;11.31;100.00;101894.41;7390953;19;20404;-52
2022/10/27 04:29:59;;;;;;;21.33;13.60;;;;;;;11.30;100.00;101905.53;7389494;19;20412;-47
2022/10/27 04:32:31;;;;;;;30.73;15.90;;;;;;;11.30;100.00;101905.53;7391265;19;20386;-47
2022/10/27 04:35:00;;;;;;;24.40;14.00;;;;;;;11.27;100.00;101903.66;7387479;19;20450;-46
2022/10/27 04:37:33;;;;;;;29.37;14.63;;;;;;;11.25;100.00;101902.69;7390105;19;20407;-49
2022/10/27 04:40:02;;;;;;;27.13;14.07;;;;;;;11.29;100.00;101901.19;7387611;19;20404;-50
2022/10/27 04:42:32;;;;;;;27.27;15.17;;;;;;;11.28;100.00;101894.25;7390347;19;20394;-49
2022/10/27 04:45:02;;;;;;;21.10;13.17;;;;;;;11.25;100.00;101894.06;7386030;19;20424;-51
2022/10/27 04:47:31;;;;;;;37.40;15.90;;;;;;;11.24;100.00;101884.53;7391754;19;20920;-53
2022/10/27 04:50:01;;;;;;;23.90;14.20;;;;;;;11.20;100.00;101881.78;7388653;19;20414;-46
2022/10/27 04:52:33;;;;;;;31.80;14.00;;;;;;;11.17;100.00;101889.34;7390156;19;20755;-52
2022/10/27 04:55:02;;;;;;;21.63;13.90;;;;;;;11.15;100.00;101880.63;7385916;19;20422;-50
2022/10/27 04:57:32;;;;;;;34.03;14.70;;;;;;;11.19;100.00;101874.81;7390488;19;20961;-51
2022/10/27 05:00:01;;;;;;;24.77;15.10;;;;;;;11.19;100.00;101885.16;7385468;19;20422;-47
2022/10/27 05:02:31;;;;;;;19.77;14.03;;;;;;;11.18;100.00;101883.38;7389763;19;20401;-49
2022/10/27 05:05:07;;;;;;;27.03;15.07;;;;;;;11.25;100.00;101881.13;7386070;19;20427;-52
2022/10/27 05:07:39;;;;;;;25.33;14.17;;;;;;;11.12;100.00;101884.72;7390195;19;20408;-52
2022/10/27 05:10:10;;;;;;;32.40;15.40;;;;;;;11.08;100.00;101883.66;7384729;19;20408;-53
2022/10/27 05:12:39;;;;;;;29.93;15.43;;;;;;;11.05;100.00;101891.22;7390672;19;20390;-47
2022/10/27 05:15:10;;;;;;;33.20;13.87;;;;;;;11.07;100.00;101892.19;7385819;19;20950;-51
2022/10/27 05:17:43;;;;;;;23.00;14.80;;;;;;;11.06;100.00;101899.06;7390015;19;20389;-47
2022/10/27 05:20:13;;;;;;;23.80;13.93;;;;;;;11.04;100.00;101900.63;7385410;19;20417;-47
2022/10/27 05:22:45;;;;;;;24.13;14.20;;;;;;;10.99;100.00;101891.75;7389655;19;20373;-49
2022/10/27 05:25:15;;;;;;;22.57;14.97;;;;;;;11.03;100.00;101893.69;7387922;19;20435;-47
2022/10/27 05:27:44;;;;;;;25.77;15.00;;;;;;;10.99;100.00;101903.78;7389607;19;20919;-50
2022/10/27 05:30:15;;;;;;;27.90;14.83;;;;;;;10.97;100.00;101913.13;7388406;19;20810;-51
2022/10/27 05:32:44;;;;;;;22.73;14.40;;;;;;;10.96;100.00;101912.22;7393812;19;20412;-48
2022/10/27 05:35:16;;;;;;;27.23;15.50;;;;;;;10.94;100.00;101904.38;7387148;19;20437;-49
2022/10/27 05:37:48;;;;;;;23.90;15.13;;;;;;;10.94;100.00;101904.38;7390216;19;20431;-49
2022/10/27 05:40:19;;;;;;;30.20;15.53;;;;;;;10.96;100.00;101901.03;7386289;19;20407;-47
2022/10/27 05:42:52;;;;;;;30.47;16.07;;;;;;;10.91;100.00;101892.97;7391674;19;20484;-47
2022/10/27 05:45:24;;;;;;;27.33;16.20;;;;;;;10.94;100.00;101894.06;7387213;19;20409;-47
2022/10/27 05:47:58;;;;;;;32.50;15.70;;;;;;;10.94;100.00;101895.75;7388950;19;20392;-48
2022/10/27 05:50:28;;;;;;;26.30;16.37;;;;;;;10.93;100.00;101902.59;7389231;19;20416;-50
2022/10/27 05:53:01;;;;;;;30.57;17.67;;;;;;;10.96;100.00;101906.19;7395857;19;20387;-46
2022/10/27 05:55:30;;;;;;;26.90;17.10;;;;;;;10.97;100.00;101906.25;7394299;19;20438;-50
2022/10/27 05:58:02;;;;;;;27.40;15.63;;;;;;;10.92;100.00;101905.13;7396863;19;20934;-46
2022/10/27 06:00:33;;;;;;;29.63;16.17;;;;;;;10.91;100.00;101901.63;7390423;19;20415;-49
2022/10/27 06:03:04;;;;;;;34.63;16.57;;;;;;;10.91;100.00;101899.06;7396172;19;20387;-46
2022/10/27 06:05:37;;;;;;;32.83;16.73;;;;;;;10.93;100.00;101884.53;7390841;19;20474;-48
2022/10/27 06:08:09;;;;;;;33.80;17.30;;;;;;;10.93;100.00;101887.09;7396465;19;20435;-46
2022/10/27 06:10:39;;;;;;;31.87;16.60;;;;;;;10.91;100.00;101882.66;7392532;19;20407;-50
2022/10/27 06:13:08;;;;;;;27.33;16.37;;;;;;;10.91;100.00;101887.81;7395468;19;20442;-46
2022/10/27 06:15:38;;;;;;;28.77;17.17;;;;;;;10.96;100.00;101893.28;7392946;19;20950;-50
2022/10/27 06:18:08;;;;;;;29.70;15.60;;;;;;;10.96;100.00;101890.69;7395818;19;20397;-47
2022/10/27 06:20:38;;;;;;;26.33;16.37;;;;;;;11.00;100.00;101887.47;7389765;19;20408;-47
2022/10/27 06:23:10;;;;;;;33.00;17.47;;;;;;;11.00;100.00;101888.38;7395503;19;20880;-52
2022/10/27 06:25:39;;;;;;;34.60;17.53;;;;;;;11.01;100.00;101884.06;7392885;19;20761;-51
2022/10/27 06:28:09;;;;;;;32.50;17.13;;;;;;;11.01;100.00;101884.06;7395602;19;20415;-49
2022/10/27 06:30:39;;;;;;;27.57;16.10;;;;;;;11.03;100.00;101890.25;7391629;19;20402;-49
2022/10/27 06:33:08;;;;;;;28.47;16.40;;;;;;;11.05;100.00;101896.38;7394893;19;20396;-51
2022/10/27 06:35:38;;;;;;;39.47;16.93;;;;;;;11.08;100.00;101889.69;7392069;19;20412;-53
2022/10/27 06:38:15;;;;;;;34.57;17.50;;;;;;;11.11;100.00;101883.81;7394809;19;20415;-50
2022/10/27 06:40:45;;;;;;;28.70;16.03;;;;;;;11.11;100.00;101881.25;7387092;19;20420;-46
2022/10/27 06:43:15;;;;;;;28.87;16.17;;;;;;;11.12;100.00;101885.59;7394926;19;20433;-48
2022/10/27 06:45:48;;;;;;;25.33;15.20;;;;;;;11.14;100.00;101877.94;7391998;19;20415;-51
2022/10/27 06:48:18;;;;;;;31.13;15.90;;;;;;;11.14;100.00;101884.00;7395282;19;20745;-51
2022/10/27 06:50:47;;;;;;;29.03;15.60;;;;;;;11.16;100.00;101889.25;7390797;19;20408;-50
2022/10/27 06:53:20;;;;;;;28.20;16.23;;;;;;;11.17;100.00;101899.66;7390839;19;20459;-49
2022/10/27 06:55:49;;;;;;;32.03;16.17;;;;;;;11.13;100.00;101894.25;7391293;19;20415;-50
2022/10/27 06:58:19;;;;;;;29.90;17.30;;;;;;;11.10;100.00;101892.38;7399188;19;20931;-52
2022/10/27 07:00:48;;;;;;;37.10;15.60;;;;;;;11.05;100.00;101896.38;7390546;19;20448;-51
2022/10/27 07:03:18;;;;;;;26.50;13.97;;;;;;;10.99;100.00;101898.59;7394105;19;20430;-47
2022/10/27 07:05:47;;;;;;;36.70;15.20;;;;;;;10.97;100.00;101898.50;7390782;19;20424;-46
2022/10/27 07:08:20;;;;;;;26.10;14.50;;;;;;;11.00;100.00;101897.78;7398983;19;20411;-50
2022/10/27 07:10:49;;;;;;;22.77;13.90;;;;;;;11.01;100.00;101902.16;7392787;19;20779;-51
2022/10/27 07:13:19;;;;;;;26.60;14.67;;;;;;;10.99;100.00;101901.19;7393188;19;20401;-52
2022/10/27 07:15:48;;;;;;;26.87;14.30;;;;;;;11.03;100.00;101903.16;7391401;19;20953;-47
2022/10/27 07:18:18;;;;;;;25.30;13.97;;;;;;;11.08;100.00;101902.63;7391777;19;20419;-47
2022/10/27 07:20:50;;;;;;;30.43;16.27;;;;;;;11.08;100.00;101901.75;7389085;19;20451;-50
2022/10/27 07:23:22;;;;;;;31.30;12.97;;;;;;;10.99;100.00;101898.59;7393504;19;20404;-52
2022/10/27 07:25:52;;;;;;;24.13;13.73;;;;;;;10.88;100.00;101905.72;7389387;19;20417;-49
2022/10/27 07:28:21;;;;;;;19.70;12.50;;;;;;;10.81;100.00;101912.22;7393604;19;20410;-50
2022/10/27 07:30:51;;;;;;;26.40;13.07;;;;;;;10.79;100.00;101921.56;7390478;19;20442;-50
2022/10/27 07:33:20;;;;;;;26.67;13.67;;;;;;;10.77;100.00;101943.81;7393424;19;20415;-47
2022/10/27 07:35:51;;;;;;;27.13;13.70;;;;;;;10.79;100.00;101948.28;7393201;19;20777;-47
2022/10/27 07:38:23;;;;;;;19.00;12.40;;;;;;;10.76;100.00;101949.75;7396115;19;20420;-50
2022/10/27 07:40:52;;;;;;;23.60;13.33;;;;;;;10.82;100.00;101957.88;7386832;19;20446;-50
2022/10/27 07:43:22;;;;;;;26.03;13.10;;;;;;;10.79;100.00;101960.28;7393054;19;20769;-49
2022/10/27 07:45:51;;;;;;;25.63;13.30;;;;;;;10.81;100.00;101969.00;7389877;19;20785;-50
2022/10/27 07:48:21;;;;;;;22.07;13.17;;;;;;;10.82;100.00;101970.78;7393245;19;20734;-50
2022/10/27 07:50:50;;;;;;;23.07;13.53;;;;;;;10.88;100.00;101971.16;7389339;19;20424;-47
2022/10/27 07:53:24;;;;;;;25.60;13.50;;;;;;;10.93;100.00;101969.75;7393582;19;20421;-48
2022/10/27 07:55:55;;;;;;;22.37;13.60;;;;;;;10.90;100.00;101963.50;7391691;19;20402;-48
2022/10/27 07:58:25;;;;;;;23.17;14.10;;;;;;;10.88;100.00;101966.00;7387951;19;20424;-51
2022/10/27 08:00:54;;;;;;;30.40;14.20;;;;;;;10.99;100.00;101969.22;7391972;19;20402;-50
2022/10/27 08:03:27;;;;;;;26.27;14.30;;;;;;;11.05;100.00;101968.69;7388470;19;20421;-45
2022/10/27 08:05:57;;;;;;;24.87;14.30;;;;;;;11.08;100.00;101974.94;7392324;19;20520;-48
2022/10/27 08:08:30;;;;;;;32.83;15.50;;;;;;;11.17;100.00;101979.75;7387786;19;20445;-45
2022/10/27 08:10:59;;;;;;;28.50;14.50;;;;;;;11.18;100.00;101976.34;7390063;19;20386;-50
2022/10/27 08:13:29;;;;;;;24.30;15.20;;;;;;;11.27;100.00;101980.31;7387672;19;20445;-50
2022/10/27 08:15:59;;;;;;;28.10;14.27;;;;;;;11.25;100.00;101979.31;7392176;19;20448;-49
2022/10/27 08:18:29;;;;;;;27.30;14.57;;;;;;;11.27;100.00;101980.31;7386998;19;20473;-47
2022/10/27 08:20:58;;;;;;;26.90;15.67;;;;;;;11.36;100.00;101986.00;7390336;19;20958;-47
2022/10/27 08:23:30;;;;;;;30.17;15.00;;;;;;;11.35;100.00;101989.38;7388644;19;20430;-50
2022/10/27 08:26:00;;;;;;;27.67;14.50;;;;;;;11.42;100.00;101996.69;7391570;19;20407;-48
2022/10/27 08:28:29;;;;;;;22.30;13.73;;;;;;;11.48;100.00;101994.47;7388885;19;20417;-47
2022/10/27 08:30:59;;;;;;;21.33;13.60;;;;;;;11.52;100.00;101992.94;7390723;19;20397;-48
2022/10/27 08:33:28;;;;;;;26.47;13.70;;;;;;;11.60;100.00;101998.56;7388685;19;20434;-50
2022/10/27 08:35:58;;;;;;;22.37;13.70;;;;;;;11.70;100.00;101992.22;7390744;19;20416;-50
2022/10/27 08:38:31;;;;;;;26.83;14.60;;;;;;;11.81;100.00;101990.22;7388837;19;20932;-51
2022/10/27 08:41:11;;;;;;;29.97;14.17;;;;;;;11.86;100.00;101988.81;7390024;19;20881;-47
2022/10/27 08:43:54;;;;;;;23.90;13.40;;;;;;;11.93;100.00;101990.91;7387241;19;20981;-46
2022/10/27 08:46:27;;;;;;;21.50;13.43;;;;;;;12.04;100.00;101993.25;7391081;19;20414;-49
2022/10/27 08:49:01;;;;;;;26.07;13.73;;;;;;;12.09;100.00;101981.44;7390074;19;20439;-48
2022/10/27 08:51:32;;;;;;;21.67;13.37;;;;;;;12.20;100.00;101988.09;7390047;19;20407;-48
2022/10/27 08:54:06;;;;;;;26.90;13.07;;;;;;;12.37;100.00;101989.00;7378386;19;20427;-47
2022/10/27 08:56:40;;;;;;;22.33;13.73;;;;;;;12.47;100.00;101985.25;7390672;19;20792;-47
2022/10/27 08:59:15;;;;;;;82.33;46.87;;;;;;;12.89;100.00;102005.56;7386201;19;20417;-46
2022/10/27 09:01:51;;;;;;;65.97;36.17;;;;;;;13.30;100.00;102026.63;7391652;19;20428;-49
2022/10/27 09:04:28;;;;;;;33.90;18.63;;;;;;;13.40;100.00;102024.50;7388851;19;20418;-49
2022/10/27 09:07:05;;;;;;;24.80;11.90;;;;;;;13.43;100.00;102032.44;7388179;19;20394;-48
2022/10/27 09:09:48;;;;;;;20.63;11.93;;;;;;;13.30;100.00;102044.78;7391844;19;20396;-53
2022/10/27 09:12:56;;;;;;;24.47;13.33;;;;;;;13.42;100.00;102067.84;7385647;19;20432;-51
2022/10/27 09:15:34;;;;;;;21.80;11.43;;;;;;;13.54;100.00;102077.97;7389888;19;20420;-52
2022/10/27 09:18:06;;;;;;;28.60;15.30;;;;;;;13.77;100.00;102086.00;7387455;19;20813;-48
2022/10/27 09:20:39;;;;;;;25.27;14.03;;;;;;;13.90;100.00;102095.31;7389083;19;20387;-47
2022/10/27 09:23:14;;;;;;;20.20;10.80;;;;;;;13.88;100.00;102092.63;7387320;19;20424;-48
2022/10/27 09:25:50;;;;;;;20.00;13.30;;;;;;;14.11;100.00;102100.63;7386612;19;20391;-43
2022/10/27 09:28:21;;;;;;;21.70;12.30;;;;;;;14.15;100.00;102097.38;7386766;19;20975;-44
2022/10/27 09:30:53;;;;;;;20.30;11.70;;;;;;;14.38;100.00;102102.81;7389348;19;20395;-48
2022/10/27 09:33:29;;;;;;;21.93;11.23;;;;;;;14.51;100.00;102095.59;7387148;19;20440;-44
2022/10/27 09:35:59;;;;;;;20.17;10.73;;;;;;;14.66;100.00;102092.81;7386746;19;20416;-44
2022/10/27 09:38:29;;;;;;;20.53;9.80;;;;;;;14.74;100.00;102091.50;7384980;19;20421;-44
2022/10/27 09:41:01;;;;;;;19.43;9.50;;;;;;;14.69;100.00;102085.16;7391535;19;20367;-45
2022/10/27 09:43:32;;;;;;;13.93;8.93;;;;;;;14.68;100.00;102080.78;7387283;19;20423;-42
2022/10/27 09:46:06;;;;;;;28.10;12.13;;;;;;;14.76;100.00;102081.19;7389626;19;20400;-43
2022/10/27 09:48:36;;;;;;;18.77;8.70;;;;;;;14.78;100.00;102075.25;7389382;19;20983;-42
2022/10/27 09:51:11;;;;;;;22.97;9.30;;;;;;;14.96;100.00;102075.16;7388956;19;20396;-42
2022/10/27 09:53:46;;;;;;;12.83;7.77;;;;;;;14.96;100.00;102075.16;7382283;19;20454;-44
2022/10/27 09:56:21;;;;;;;15.90;8.53;;;;;;;14.90;100.00;102080.09;7388539;19;20406;-42
2022/10/27 09:59:00;;;;;;;17.40;8.40;;;;;;;14.94;100.00;102076.81;7385367;19;20479;-43
2022/10/27 10:01:46;;;;;;;16.50;8.73;;;;;;;14.90;100.00;102072.28;7390308;19;20402;-42
2022/10/27 10:04:20;;;;;;;18.00;8.50;;;;;;;14.93;100.00;102075.00;7386739;19;20434;-45
2022/10/27 10:06:55;;;;;;;20.43;8.17;;;;;;;14.93;100.00;102069.81;7385971;19;20388;-44
2022/10/27 10:09:27;;;;;;;18.50;9.40;;;;;;;14.90;100.00;102080.09;7387808;19;20383;-42
2022/10/27 10:12:24;;;;;;;34.57;20.93;;;;;;;15.01;100.00;102077.09;7389457;19;20396;-42
2022/10/27 10:15:18;;;;;;;18.13;9.23;;;;;;;14.97;100.00;102076.94;7385876;19;21087;-46
2022/10/27 10:17:58;;;;;;;16.30;7.57;;;;;;;15.05;100.00;102078.97;7386188;19;20416;-42
2022/10/27 10:20:36;;;;;;;28.13;15.07;;;;;;;15.27;100.00;102079.94;7388191;19;20385;-44
2022/10/27 10:23:09;;;;;;;14.67;6.90;;;;;;;15.27;100.00;102079.94;7384902;19;20408;-44
2022/10/27 10:25:46;;;;;;;15.97;6.90;;;;;;;15.16;100.00;102080.34;7388867;19;20401;-44
2022/10/27 10:28:21;;;;;;;9.97;6.50;;;;;;;15.19;100.00;102080.50;7384512;19;21035;-47
2022/10/27 10:30:54;;;;;;;20.10;8.80;;;;;;;15.23;100.00;102069.38;7385884;19;20392;-49
2022/10/27 10:33:24;;;;;;;18.87;7.40;;;;;;;15.21;100.00;102077.94;7385574;19;20446;-43
2022/10/27 10:35:54;;;;;;;17.67;9.13;;;;;;;15.36;100.00;102069.91;7388936;19;20404;-42
2022/10/27 10:38:37;;;;;;;13.40;6.60;;;;;;;15.29;100.00;102073.09;7391614;19;20416;-43
2022/10/27 10:41:10;;;;;;;11.57;6.40;;;;;;;15.32;100.00;102074.09;7393704;19;20416;-43
2022/10/27 10:43:42;;;;;;;19.60;7.00;;;;;;;15.40;100.00;102074.44;7389174;19;20822;-42
2022/10/27 10:46:25;;;;;;;10.43;6.70;;;;;;;15.45;100.00;102059.94;7392297;19;20392;-42
2022/10/27 10:48:57;;;;;;;11.13;6.33;;;;;;;15.52;100.00;102061.97;7390044;19;20468;-45
2022/10/27 10:51:27;;;;;;;15.57;8.60;;;;;;;15.62;100.00;102062.34;7391339;19;20394;-42
2022/10/27 10:54:00;;;;;;;10.97;5.83;;;;;;;15.67;100.00;102060.81;7386393;19;20492;-44
2022/10/27 10:56:31;;;;;;;11.37;5.63;;;;;;;15.65;100.00;102054.66;7392896;19;20425;-45
2022/10/27 10:59:12;;;;;;;24.17;10.63;;;;;;;15.72;100.00;102055.78;7389124;19;20413;-43
2022/10/27 11:01:47;;;;;;;12.40;7.00;;;;;;;15.76;100.00;102053.41;7390880;19;20414;-43
2022/10/27 11:04:20;;;;;;;10.70;5.40;;;;;;;15.85;100.00;102052.00;7389333;19;20812;-43
2022/10/27 11:07:01;;;;;;;12.53;6.20;;;;;;;15.86;100.00;102051.16;7389540;19;20372;-42
2022/10/27 11:09:36;;;;;;;16.00;5.90;;;;;;;15.94;100.00;102039.38;7395288;19;20940;-43
2022/10/27 11:12:10;;;;;;;11.00;5.10;;;;;;;16.02;100.00;102037.97;7389340;19;20861;-43
2022/10/27 11:14:44;;;;;;;8.97;5.20;;;;;;;16.09;100.00;102033.03;7390247;19;20407;-42
2022/10/27 11:17:13;;;;;;;11.87;6.03;;;;;;;16.12;100.00;102035.72;7390690;19;20414;-44
2022/10/27 11:19:48;;;;;;;9.80;5.30;;;;;;;16.12;100.00;102028.81;7392018;19;20409;-47
2022/10/27 11:22:22;;;;;;;9.27;5.10;;;;;;;16.12;100.00;102022.72;7388782;19;20418;-42
2022/10/27 11:24:55;;;;;;;10.77;5.00;;;;;;;16.13;100.00;102021.88;7389682;19;20430;-44